This is the latest recevied weather packets stored in our database for station/object WA1TYB-13. If no packets are shown the sender has not sent any weather packets the latest 10 day(s).
| Time | Temp. | Humidity | Pressure | Rain* | Wind** | Luminosity | Snow |
|---|---|---|---|---|---|---|---|
| 1778151658 | 10° C | 79% | 1014.4 hPa | 0 mm | - | 0 W/m² | - |
| 1778151354 | 10° C | 78% | 1014.3 hPa | 0 mm | - | 0 W/m² | - |
| 1778151050 | 10° C | 77% | 1014.2 hPa | 0 mm | - | 0 W/m² | - |
| 1778150748 | 10° C | 78% | 1014.2 hPa | 0 mm | - | 0 W/m² | - |
| 1778150444 | 10° C | 79% | 1014.5 hPa | 0 mm | - | 0 W/m² | - |
| 1778150140 | 10° C | 79% | 1014.3 hPa | 0 mm | - | 0 W/m² | - |
| 1778149837 | 10° C | 79% | 1014.4 hPa | 0 mm | - | 0 W/m² | - |
| 1778149534 | 10° C | 78% | 1014.3 hPa | 0 mm | - | 0 W/m² | - |
| 1778149230 | 10° C | 78% | 1014.4 hPa | 0 mm | - | 0 W/m² | - |
| 1778148925 | 10° C | 77% | 1014.7 hPa | 0 mm | - | 0 W/m² | - |
| 1778148622 | 10° C | 74% | 1014.8 hPa | 3.56 mm | - | 0 W/m² | - |
| 1778148320 | 10° C | 77% | 1015.1 hPa | 6.6 mm | - | 0 W/m² | - |
| 1778148018 | 10.56° C | 72% | 1015.6 hPa | 3.05 mm | - | 0 W/m² | - |
| 1778147715 | 10.56° C | 73% | 1015.2 hPa | 0 mm | - | 0 W/m² | - |
| 1778147412 | 11.67° C | 66% | 1015.1 hPa | 0 mm | - | 0 W/m² | - |
| 1778147108 | 12.22° C | 62% | 1015 hPa | 0 mm | - | 0 W/m² | - |
| 1778146805 | 12.22° C | 63% | 1014.9 hPa | 0 mm | - | 0 W/m² | - |
| 1778146502 | 11.67° C | 67% | 1014.4 hPa | 0 mm | - | 0 W/m² | - |
| 1778146201 | 12.22° C | 64% | 1013.8 hPa | 0 mm | - | 0 W/m² | - |
| 1778145897 | 12.78° C | 61% | 1013.5 hPa | 0 mm | - | 0 W/m² | - |
| 1778145594 | 13.33° C | 56% | 1013.2 hPa | 0 mm | - | 0 W/m² | - |
| 1778145290 | 13.33° C | 55% | 1013.2 hPa | 0 mm | - | 0 W/m² | - |
| 1778144986 | 13.89° C | 54% | 1013 hPa | 0 mm | - | 0 W/m² | - |
| 1778144682 | 14.44° C | 49% | 1012.7 hPa | 0 mm | - | 0 W/m² | - |
| 1778144379 | 15° C | 48% | 1012.6 hPa | 0 mm | - | 0 W/m² | - |
* Rain latest hour (hover to see other rain measurements)
** Current wind speed in m/s (hover to see current wind gust speed)